Terminal Aerodrome Forecast
Issued by NWS Louisville, KY

Home | Current Version | Previous Version | Text Only | Print | Product List | Glossary On
Versions: 1 2 3 4 5 6 7 8 9 10 11 12 13 14 15 16 17
165
FTUS43 KLMK 211124
TAFBWG
TAF
KBWG 211124Z 2112/2212 00000KT P6SM BKN250
     FM211400 19007KT P6SM SCT040 BKN250
     FM211900 20008KT P6SM VCTS BKN040CB PROB30 2121/2201 3SM TSRA
      BKN030CB
     FM220300 VRB03KT P6SM BKN100=

USA.gov is the U.S. government's official web portal to all federal, state and local government web resources and services.